createdAt,value
2022-11-09T00:01:36.413Z,14
2022-11-09T00:03:43.036Z,13.9
2022-11-09T00:05:46.511Z,13.9
2022-11-09T00:07:50.037Z,13.9
2022-11-09T00:09:53.567Z,14
2022-11-09T00:11:57.059Z,13.9
2022-11-09T00:14:00.562Z,13.9
2022-11-09T00:18:10.776Z,13.9
2022-11-09T00:20:14.232Z,13.8
2022-11-09T00:22:17.711Z,13.8
2022-11-09T00:24:36.049Z,14
2022-11-09T00:26:39.701Z,14.1
2022-11-09T00:28:43.062Z,14
2022-11-09T00:30:49.673Z,14
2022-11-09T00:32:53.166Z,13.9
2022-11-09T00:34:56.706Z,14.1
2022-11-09T00:37:00.197Z,14.1
2022-11-09T00:41:07.197Z,14.2
2022-11-09T00:43:10.723Z,14.1
2022-11-09T00:45:18.906Z,14
2022-11-09T00:47:22.337Z,14.1
2022-11-09T00:49:25.837Z,14
2022-11-09T00:51:29.322Z,13.9
2022-11-09T00:53:32.825Z,14
2022-11-09T00:55:36.305Z,13.9
2022-11-09T00:57:39.805Z,13.9
2022-11-09T00:59:46.406Z,13.8
2022-11-09T01:01:49.908Z,13.7
2022-11-09T01:03:53.419Z,13.7
2022-11-09T01:05:56.866Z,13.8
2022-11-09T01:12:07.398Z,13.7
2022-11-09T01:16:17.473Z,13.7
2022-11-09T01:18:21.019Z,13.6
2022-11-09T01:19:24.307Z,13.5
2022-11-09T01:21:27.839Z,13.5
2022-11-09T01:23:31.319Z,13.4
2022-11-09T01:25:34.821Z,13.5
2022-11-09T01:27:41.391Z,13.6
2022-11-09T01:29:44.910Z,13.5
2022-11-09T01:31:48.436Z,13.5
2022-11-09T01:33:51.943Z,13.5
2022-11-09T01:35:55.432Z,13.4
2022-11-09T01:37:58.976Z,13.3
2022-11-09T01:40:02.496Z,13.3
2022-11-09T01:42:09.108Z,13.4
2022-11-09T01:44:12.613Z,13.4
2022-11-09T01:46:16.065Z,13.3
2022-11-09T01:48:19.608Z,13.3
2022-11-09T01:50:23.144Z,13.3
2022-11-09T01:52:26.648Z,13.3
2022-11-09T01:54:30.198Z,13.3
2022-11-09T01:56:36.809Z,13.3
2022-11-09T02:02:47.388Z,13.3
2022-11-09T02:04:50.888Z,13.4
2022-11-09T02:06:54.488Z,13.3
2022-11-09T02:08:57.926Z,13.5
2022-11-09T02:11:04.553Z,13.3
2022-11-09T02:13:08.060Z,13.2
2022-11-09T02:15:11.560Z,13.3
2022-11-09T02:20:21.966Z,13.2
2022-11-09T02:22:25.448Z,13.1
2022-11-09T02:24:32.060Z,13
2022-11-09T02:26:35.631Z,13
2022-11-09T02:28:39.124Z,13.1
2022-11-09T02:30:42.645Z,12.9
2022-11-09T02:32:46.171Z,12.9
2022-11-09T02:34:49.706Z,13
2022-11-09T02:36:53.394Z,13
2022-11-09T02:38:59.872Z,13
2022-11-09T02:41:03.395Z,13
2022-11-09T02:43:06.924Z,13.1
2022-11-09T02:45:10.462Z,13
2022-11-09T02:47:13.980Z,13.1
2022-11-09T02:49:17.524Z,13.1
2022-11-09T02:51:21.044Z,13
2022-11-09T02:53:27.652Z,13
2022-11-09T02:55:31.204Z,12.9
2022-11-09T02:57:34.709Z,12.9
2022-11-09T02:59:38.272Z,13
2022-11-09T03:01:41.815Z,13
2022-11-09T03:03:45.277Z,13
2022-11-09T03:05:48.785Z,13
2022-11-09T03:07:55.419Z,12.9
2022-11-09T03:09:58.923Z,13
2022-11-09T03:13:05.781Z,13
2022-11-09T03:15:09.304Z,13
2022-11-09T03:17:12.808Z,13.1
2022-11-09T03:19:16.309Z,12.9
2022-11-09T03:21:22.953Z,13
2022-11-09T03:23:26.495Z,13
2022-11-09T03:25:29.990Z,13
2022-11-09T03:27:33.529Z,12.9
2022-11-09T03:29:37.067Z,12.9
2022-11-09T03:31:40.568Z,13
2022-11-09T03:33:44.084Z,13.1
2022-11-09T03:37:54.279Z,13
2022-11-09T03:39:57.744Z,13
2022-11-09T03:42:01.260Z,13
2022-11-09T03:44:04.816Z,13
2022-11-09T03:46:08.321Z,13
2022-11-09T03:48:11.820Z,13
2022-11-09T03:50:18.437Z,13
2022-11-09T03:52:22.015Z,13.1
2022-11-09T03:54:25.490Z,13.1
2022-11-09T03:56:29.024Z,13.1
2022-11-09T03:58:32.519Z,13
2022-11-09T04:00:36.054Z,13
2022-11-09T04:02:39.562Z,13.1
2022-11-09T04:04:46.149Z,13
2022-11-09T04:08:53.246Z,13
2022-11-09T04:11:17.140Z,12.9
2022-11-09T04:13:20.943Z,13
2022-11-09T04:15:24.218Z,12.9
2022-11-09T04:17:30.848Z,12.9
2022-11-09T04:19:34.352Z,13
2022-11-09T04:21:37.903Z,13
2022-11-09T04:23:41.448Z,12.9
2022-11-09T04:25:44.963Z,13
2022-11-09T04:27:48.520Z,12.9
2022-11-09T04:29:52.040Z,12.8
2022-11-09T04:34:02.199Z,12.8
2022-11-09T04:36:05.731Z,12.8
2022-11-09T04:38:09.231Z,12.8
2022-11-09T04:40:12.773Z,12.8
2022-11-09T04:42:16.305Z,12.7
2022-11-09T04:44:19.856Z,12.7
2022-11-09T04:46:26.470Z,12.7
2022-11-09T04:48:29.996Z,12.8
2022-11-09T04:50:33.541Z,12.7
2022-11-09T04:52:37.078Z,12.8
2022-11-09T04:54:40.626Z,12.8
2022-11-09T04:56:44.153Z,12.6
2022-11-09T04:58:47.661Z,12.7
2022-11-09T05:00:54.343Z,12.5
2022-11-09T05:02:57.835Z,12.6
2022-11-09T05:05:01.370Z,12.6
2022-11-09T05:06:04.674Z,12.5
2022-11-09T05:08:08.206Z,12.6
2022-11-09T05:10:11.734Z,12.5
2022-11-09T05:12:15.271Z,12.5
2022-11-09T05:14:21.881Z,12.4
2022-11-09T05:18:28.976Z,12.4
2022-11-09T05:20:32.488Z,12.3
2022-11-09T05:22:35.980Z,12.3
2022-11-09T05:24:39.568Z,12.3
2022-11-09T05:26:43.207Z,12.2
2022-11-09T05:28:49.697Z,12.3
2022-11-09T05:30:53.254Z,12.2
2022-11-09T05:32:56.764Z,12.2
2022-11-09T05:35:00.326Z,12.1
2022-11-09T05:37:03.948Z,12.2
2022-11-09T05:39:07.373Z,12.2
2022-11-09T05:41:10.958Z,12.2
2022-11-09T05:43:17.882Z,12.2
2022-11-09T05:45:41.504Z,12.1
2022-11-09T05:47:24.642Z,12.3
2022-11-09T05:49:28.219Z,12.2
2022-11-09T05:51:31.740Z,12.2
2022-11-09T05:53:35.303Z,12.3
2022-11-09T05:55:38.820Z,12.3
2022-11-09T05:57:45.438Z,12.3
2022-11-09T05:59:48.993Z,12.2
2022-11-09T06:01:52.550Z,12.2
2022-11-09T06:09:06.492Z,12
2022-11-09T06:11:15.732Z,11.9
2022-11-09T06:13:16.775Z,12.2
2022-11-09T06:15:20.203Z,12.1
2022-11-09T06:17:23.756Z,12
2022-11-09T06:19:27.346Z,12.1
2022-11-09T06:21:30.887Z,11.9
2022-11-09T06:23:34.416Z,11.9
2022-11-09T06:25:41.036Z,11.9
2022-11-09T06:27:44.614Z,11.9
2022-11-09T06:29:48.167Z,11.9
2022-11-09T06:31:51.733Z,11.9
2022-11-09T06:33:55.278Z,12
2022-11-09T06:35:58.795Z,12.1
2022-11-09T06:38:02.369Z,12
2022-11-09T06:40:09.023Z,12.1
2022-11-09T06:42:14.179Z,11.9
2022-11-09T06:44:17.571Z,11.9
2022-11-09T06:46:21.163Z,11.9
2022-11-09T06:48:24.723Z,11.9
2022-11-09T06:50:28.252Z,11.9
2022-11-09T06:52:31.800Z,11.9
2022-11-09T06:54:38.455Z,11.9
2022-11-09T06:56:41.986Z,11.9
2022-11-09T06:58:45.561Z,11.8
2022-11-09T07:03:55.919Z,11.8
2022-11-09T07:10:09.650Z,11.8
2022-11-09T07:12:13.248Z,11.8
2022-11-09T07:14:16.769Z,11.8
2022-11-09T07:16:20.348Z,11.8
2022-11-09T07:18:23.909Z,11.9
2022-11-09T07:20:27.440Z,12
2022-11-09T07:22:34.078Z,12.1
2022-11-09T07:24:37.649Z,12.1
2022-11-09T07:28:44.733Z,12.2
2022-11-09T07:30:48.296Z,12.3
2022-11-09T07:34:55.431Z,12.5
2022-11-09T07:39:05.555Z,13.3
2022-11-09T07:41:09.103Z,13.6
2022-11-09T07:43:12.686Z,13.9
2022-11-09T07:45:16.231Z,13.9
2022-11-09T07:47:19.790Z,14
2022-11-09T07:53:33.534Z,14.4
2022-11-09T07:55:37.089Z,14.8
2022-11-09T07:58:01.340Z,14.8
2022-11-09T08:00:04.853Z,14.7
2022-11-09T08:02:08.488Z,15.1
2022-11-09T08:04:15.044Z,13.9
2022-11-09T08:06:19.045Z,13.4
2022-11-09T08:08:22.105Z,13.1
2022-11-09T08:10:25.642Z,13
2022-11-09T08:12:32.985Z,12.9
2022-11-09T08:14:32.715Z,13.4
2022-11-09T08:16:37.862Z,14
2022-11-09T08:18:42.855Z,14.6
2022-11-09T08:20:46.378Z,14.9
2022-11-09T08:22:49.916Z,15.4
2022-11-09T08:24:53.452Z,15.4
2022-11-09T08:26:57.000Z,15.4
2022-11-09T08:31:04.059Z,14.9
2022-11-09T08:35:14.136Z,15.2
2022-11-09T08:37:17.701Z,15.3
2022-11-09T08:39:21.217Z,15.1
2022-11-09T08:41:24.766Z,14.9
2022-11-09T08:43:28.255Z,15.4
2022-11-09T08:45:31.788Z,15.7
2022-11-09T08:47:38.383Z,15.1
2022-11-09T08:49:41.906Z,15.6
2022-11-09T08:52:48.709Z,15.8
2022-11-09T08:54:52.199Z,15.6
2022-11-09T08:56:55.857Z,15.4
2022-11-09T08:58:59.238Z,15.6
2022-11-09T09:01:05.838Z,15.5
2022-11-09T09:03:09.329Z,15.7
2022-11-09T09:05:12.861Z,15.8
2022-11-09T09:07:16.451Z,15.4
2022-11-09T09:09:19.877Z,15.6
2022-11-09T09:11:23.380Z,15.1
2022-11-09T09:13:26.851Z,14.7
2022-11-09T09:17:36.981Z,14.8
2022-11-09T09:19:40.459Z,14.2
2022-11-09T09:21:43.930Z,14.5
2022-11-09T09:23:47.428Z,15.5
2022-11-09T09:30:01.020Z,14.2
2022-11-09T09:32:04.511Z,14.7
2022-11-09T09:34:08.037Z,14.5
2022-11-09T09:36:11.544Z,14.6
2022-11-09T09:38:15.016Z,15.2
2022-11-09T09:40:18.543Z,15.7
2022-11-09T09:42:22.020Z,15.1
2022-11-09T09:46:32.095Z,15.8
2022-11-09T09:49:38.911Z,14.9
2022-11-09T09:51:42.378Z,14.9
2022-11-09T09:53:45.840Z,15.5
2022-11-09T09:55:49.348Z,15.9
2022-11-09T09:57:55.900Z,16.1
2022-11-09T09:59:59.346Z,15.8
2022-11-09T10:02:02.832Z,15.5
2022-11-09T10:04:06.357Z,15.1
2022-11-09T10:06:09.712Z,15.8
2022-11-09T10:08:13.196Z,15.7
2022-11-09T10:10:16.637Z,15.5
2022-11-09T10:12:23.226Z,15.3
2022-11-09T10:14:26.675Z,15.9
2022-11-09T10:16:30.135Z,15.4
2022-11-09T10:18:33.582Z,15.5
2022-11-09T10:20:36.997Z,16.3
2022-11-09T10:22:40.464Z,16.4
2022-11-09T10:24:58.670Z,16.2
2022-11-09T10:26:50.595Z,16.6
2022-11-09T10:29:15.127Z,16.2
2022-11-09T10:30:57.258Z,15.9
2022-11-09T10:33:00.711Z,17.2
2022-11-09T10:35:04.117Z,17.1
2022-11-09T10:37:07.577Z,16.3
2022-11-09T10:39:10.998Z,15.8
2022-11-09T10:41:17.532Z,15.4
2022-11-09T10:43:20.953Z,15
2022-11-09T10:45:24.356Z,14.9
2022-11-09T10:48:31.036Z,14.8
2022-11-09T10:50:34.457Z,14.5
2022-11-09T10:52:37.864Z,14.3
2022-11-09T10:54:44.435Z,14.4
2022-11-09T10:57:05.680Z,14.5
2022-11-09T10:58:51.267Z,14.4
2022-11-09T11:00:54.810Z,15.2
2022-11-09T11:02:58.179Z,14.8
2022-11-09T11:05:01.638Z,14.5
2022-11-09T11:07:05.326Z,14.3
2022-11-09T11:09:11.626Z,14.3
2022-11-09T11:11:32.881Z,14.2
2022-11-09T11:13:18.763Z,14.1
2022-11-09T11:15:22.024Z,14.1
2022-11-09T11:17:25.495Z,14
2022-11-09T11:19:28.945Z,13.9
2022-11-09T11:21:32.394Z,13.8
2022-11-09T11:27:45.907Z,18.7
2022-11-09T11:31:52.858Z,17.3
2022-11-09T11:33:56.304Z,16.8
2022-11-09T11:38:06.295Z,14.5
2022-11-09T11:44:31.176Z,14.2
2022-11-09T11:46:34.608Z,14.2
2022-11-09T11:48:38.070Z,14.2
2022-11-09T11:50:44.620Z,14.4
2022-11-09T11:52:48.082Z,14.3
2022-11-09T11:54:51.555Z,14.2
2022-11-09T11:56:55.039Z,14.2
2022-11-09T11:58:58.484Z,14.2
2022-11-09T12:01:01.959Z,14.3
2022-11-09T12:03:05.474Z,14.4
2022-11-09T12:05:11.977Z,14.8
2022-11-09T12:07:15.522Z,14.7
2022-11-09T12:09:18.888Z,15
2022-11-09T12:11:22.340Z,15.3
2022-11-09T12:17:32.732Z,15.2
2022-11-09T12:21:42.833Z,14.7
2022-11-09T12:29:56.692Z,14.6
2022-11-09T12:32:00.222Z,14.7
2022-11-09T12:36:10.336Z,14.8
2022-11-09T12:39:18.465Z,14.9
2022-11-09T12:41:21.969Z,14.9
2022-11-09T12:43:25.406Z,14.9
2022-11-09T12:45:28.827Z,14.6
2022-11-09T12:47:35.396Z,14.4
2022-11-09T12:49:38.857Z,14.4
2022-11-09T12:51:42.340Z,14.7
2022-11-09T12:53:45.847Z,14.9
2022-11-09T12:55:49.294Z,15
2022-11-09T12:57:55.874Z,15.1
2022-11-09T12:59:56.258Z,15
2022-11-09T13:02:02.854Z,15.1
2022-11-09T13:04:06.318Z,15.1
2022-11-09T13:06:09.784Z,15.2
2022-11-09T13:08:13.358Z,15.1
2022-11-09T13:10:16.778Z,15
2022-11-09T13:12:20.225Z,14.9
2022-11-09T13:14:23.713Z,14.6
2022-11-09T13:16:30.282Z,14.4
2022-11-09T13:18:35.873Z,14.4
2022-11-09T13:20:53.222Z,14.3
2022-11-09T13:22:40.711Z,14.3
2022-11-09T13:24:44.181Z,14.3
2022-11-09T13:26:47.691Z,14.3
2022-11-09T13:28:51.145Z,14.3
2022-11-09T13:30:57.710Z,14.3
2022-11-09T13:33:01.164Z,14.2
2022-11-09T13:35:04.678Z,14.3
2022-11-09T13:38:11.408Z,14.5
2022-11-09T13:40:14.900Z,14.5
2022-11-09T13:42:18.371Z,14.5
2022-11-09T13:44:24.929Z,14.5
2022-11-09T13:46:28.416Z,14.4
2022-11-09T13:48:31.908Z,14.3
2022-11-09T13:50:35.405Z,14.2
2022-11-09T13:52:38.885Z,14.2
2022-11-09T13:54:42.362Z,14.2
2022-11-09T13:56:45.874Z,14.2
2022-11-09T13:58:52.429Z,14.1
2022-11-09T14:00:55.985Z,14.1
2022-11-09T14:02:59.397Z,14
2022-11-09T14:05:02.893Z,14
2022-11-09T14:07:06.452Z,14
2022-11-09T14:09:09.879Z,14.1
2022-11-09T14:11:13.384Z,14.1
2022-11-09T14:13:19.975Z,14
2022-11-09T14:15:23.457Z,14.1
2022-11-09T14:17:26.944Z,14.1
2022-11-09T14:19:30.464Z,14.1
2022-11-09T14:21:33.964Z,14.2
2022-11-09T14:23:37.435Z,14.2
2022-11-09T14:25:40.911Z,14.2
2022-11-09T14:27:47.536Z,14.2
2022-11-09T14:29:51.005Z,14.1
2022-11-09T14:31:54.502Z,14.3
2022-11-09T14:37:05.939Z,14.2
2022-11-09T14:39:08.278Z,14.1
2022-11-09T14:41:14.819Z,14.1
2022-11-09T14:43:18.321Z,14.1
2022-11-09T14:47:25.320Z,14
2022-11-09T14:53:35.806Z,13.8
2022-11-09T14:55:42.383Z,13.8
2022-11-09T14:57:45.907Z,13.8
2022-11-09T14:59:49.374Z,13.7
2022-11-09T15:03:56.419Z,13.7
2022-11-09T15:05:59.879Z,13.7
2022-11-09T15:08:03.389Z,13.7
2022-11-09T15:12:13.451Z,13.6
2022-11-09T15:14:16.958Z,13.6
2022-11-09T15:16:20.620Z,13.6
2022-11-09T15:18:27.798Z,13.6
2022-11-09T15:20:27.492Z,13.5
2022-11-09T15:22:31.010Z,13.4
2022-11-09T15:24:41.094Z,13.4
2022-11-09T15:26:41.119Z,13.4
2022-11-09T15:28:44.654Z,13.3
2022-11-09T15:33:06.290Z,13.2
2022-11-09T15:35:09.784Z,13.1
2022-11-09T15:37:16.406Z,13.2
2022-11-09T15:39:19.865Z,13.2
2022-11-09T15:43:26.928Z,13
2022-11-09T15:45:30.447Z,12.9
2022-11-09T15:47:33.962Z,12.7
2022-11-09T15:49:37.459Z,12.7
2022-11-09T15:51:44.055Z,12.6
2022-11-09T15:53:47.572Z,12.6
2022-11-09T15:55:51.147Z,12.6
2022-11-09T15:57:54.627Z,12.7
2022-11-09T15:59:58.152Z,12.7
2022-11-09T16:02:01.687Z,12.7
2022-11-09T16:04:05.256Z,12.8
2022-11-09T16:06:11.820Z,12.7
2022-11-09T16:08:15.359Z,12.8
2022-11-09T16:10:18.885Z,12.8
2022-11-09T16:12:22.410Z,12.9
2022-11-09T16:14:25.934Z,12.9
2022-11-09T16:16:29.495Z,13
2022-11-09T16:18:33.255Z,13
2022-11-09T16:20:39.638Z,13.1
2022-11-09T16:24:46.652Z,13.1
2022-11-09T16:29:56.980Z,13.1
2022-11-09T16:32:00.492Z,13.1
2022-11-09T16:34:07.090Z,13
2022-11-09T16:36:10.620Z,13
2022-11-09T16:38:14.140Z,13
2022-11-09T16:44:24.645Z,12.9
2022-11-09T16:46:28.155Z,12.8
2022-11-09T16:48:34.746Z,12.8
2022-11-09T16:54:45.295Z,12.7
2022-11-09T16:56:48.792Z,12.7
2022-11-09T16:58:52.287Z,12.7
2022-11-09T17:01:11.630Z,12.6
2022-11-09T17:03:02.442Z,12.7
2022-11-09T17:05:05.957Z,12.7
2022-11-09T17:07:09.472Z,12.7
2022-11-09T17:09:12.970Z,12.7
2022-11-09T17:11:16.433Z,12.7
2022-11-09T17:13:19.941Z,12.7
2022-11-09T17:15:23.467Z,12.7
2022-11-09T17:17:30.154Z,12.7
2022-11-09T17:19:33.576Z,12.6
2022-11-09T17:21:37.098Z,12.7
2022-11-09T17:22:45.939Z,12.6
2022-11-09T17:26:47.411Z,12.6
2022-11-09T17:35:04.552Z,12.5
2022-11-09T17:37:08.064Z,12.5
2022-11-09T17:39:11.567Z,12.6
2022-11-09T17:41:15.093Z,12.6
2022-11-09T17:43:18.619Z,12.6
2022-11-09T17:45:25.224Z,12.5
2022-11-09T17:47:28.738Z,12.6
2022-11-09T17:49:32.247Z,12.6
2022-11-09T17:51:35.750Z,12.6
2022-11-09T17:57:46.341Z,12.5
2022-11-09T18:01:56.419Z,12.6
2022-11-09T18:04:03.022Z,12.4
2022-11-09T18:06:03.478Z,12.5
2022-11-09T18:08:06.997Z,12.5
2022-11-09T18:10:10.526Z,12.4
2022-11-09T18:12:14.075Z,12.4
2022-11-09T18:14:20.659Z,12.5
2022-11-09T18:16:24.209Z,12.4
2022-11-09T18:18:27.717Z,12.4
2022-11-09T18:19:31.010Z,12.4
2022-11-09T18:21:34.535Z,12.4
2022-11-09T18:23:38.038Z,12.3
2022-11-09T18:25:41.556Z,12.3
2022-11-09T18:27:48.184Z,12.3
2022-11-09T18:29:51.734Z,12.2
2022-11-09T18:31:55.251Z,12.3
2022-11-09T18:34:00.348Z,12.3
2022-11-09T18:36:03.860Z,12.2
2022-11-09T18:38:12.824Z,12.3
2022-11-09T18:40:10.911Z,12.2
2022-11-09T18:42:17.514Z,12.3
2022-11-09T18:44:21.072Z,12.2
2022-11-09T18:46:24.608Z,12.3
2022-11-09T18:48:28.141Z,12.2
2022-11-09T18:50:31.666Z,12.2
2022-11-09T18:52:35.170Z,12.2
2022-11-09T18:54:38.786Z,12.2
2022-11-09T18:56:45.336Z,12.2
2022-11-09T18:58:48.872Z,12.2
2022-11-09T19:02:56.029Z,12.1
2022-11-09T19:09:06.521Z,12
2022-11-09T19:11:13.128Z,12.1
2022-11-09T19:13:16.697Z,12
2022-11-09T19:15:20.254Z,11.9
2022-11-09T19:17:44.504Z,12
2022-11-09T19:19:48.053Z,11.9
2022-11-09T19:21:51.560Z,11.9
2022-11-09T19:23:58.171Z,12
2022-11-09T19:26:01.751Z,11.9
2022-11-09T19:28:05.285Z,11.9
2022-11-09T19:30:09.801Z,11.8
2022-11-09T19:32:12.323Z,11.8
2022-11-09T19:34:15.854Z,11.7
2022-11-09T19:36:29.687Z,11.7
2022-11-09T19:38:25.992Z,11.5
2022-11-09T19:40:29.529Z,11.4
2022-11-09T19:42:33.074Z,11.5
2022-11-09T19:44:36.640Z,11.6
2022-11-09T19:46:40.167Z,11.6
2022-11-09T19:50:47.240Z,11.6
2022-11-09T19:59:04.493Z,11.5
2022-11-09T20:01:08.097Z,11.5
2022-11-09T20:03:11.606Z,11.4
2022-11-09T20:05:15.173Z,11.2
2022-11-09T20:07:21.751Z,11.4
2022-11-09T20:09:25.317Z,11.2
2022-11-09T20:11:28.857Z,11.2
2022-11-09T20:12:32.194Z,11.3
2022-11-09T20:14:35.741Z,11
2022-11-09T20:16:39.291Z,10.9
2022-11-09T20:20:49.448Z,11
2022-11-09T20:24:56.554Z,10.9
2022-11-09T20:31:07.253Z,10.6
2022-11-09T20:33:10.787Z,10.6
2022-11-09T20:35:17.438Z,10.9
2022-11-09T20:37:20.987Z,10.8
2022-11-09T20:45:35.228Z,10.8
2022-11-09T20:49:45.443Z,10.7
2022-11-09T20:51:48.975Z,10.7
2022-11-09T20:53:52.564Z,10.7
2022-11-09T20:55:56.156Z,10.6
2022-11-09T20:57:59.684Z,10.4
2022-11-09T21:00:03.263Z,10.5
2022-11-09T21:02:06.815Z,10.5
2022-11-09T21:04:13.463Z,10.4
2022-11-09T21:06:17.032Z,10.4
2022-11-09T21:08:20.954Z,10.6
2022-11-09T21:09:23.896Z,10.5
2022-11-09T21:11:27.486Z,10.3
2022-11-09T21:13:31.040Z,10.4
2022-11-09T21:15:34.637Z,10.7
2022-11-09T21:17:41.301Z,10.7
2022-11-09T21:19:44.860Z,10.4
2022-11-09T21:21:48.432Z,10.4
2022-11-09T21:23:52.004Z,10.5
2022-11-09T21:25:55.580Z,10.3
2022-11-09T21:27:59.166Z,10.6
2022-11-09T21:30:02.849Z,10.3
2022-11-09T21:32:09.383Z,10.3
2022-11-09T21:34:12.928Z,10.5
2022-11-09T21:36:16.503Z,10.6
2022-11-09T21:38:20.338Z,10.4
2022-11-09T21:40:23.642Z,10.2
2022-11-09T21:44:30.786Z,10.3
2022-11-09T21:46:37.426Z,10.3
2022-11-09T21:48:41.018Z,10.3
2022-11-09T21:54:51.740Z,10.2
2022-11-09T21:56:55.320Z,10.4
2022-11-09T21:58:58.830Z,10
2022-11-09T22:01:05.561Z,10.3
2022-11-09T22:03:09.081Z,10
2022-11-09T22:05:12.713Z,10.1
2022-11-09T22:06:15.986Z,10.1
2022-11-09T22:08:19.555Z,10.1
2022-11-09T22:10:23.160Z,10.3
2022-11-09T22:14:33.369Z,10.3
2022-11-09T22:16:36.943Z,10.2
2022-11-09T22:18:40.493Z,10.4
2022-11-09T22:20:44.095Z,10.2
2022-11-09T22:22:47.681Z,10.2
2022-11-09T22:24:51.253Z,10.1
2022-11-09T22:29:01.477Z,10.1
2022-11-09T22:31:05.084Z,10.4
2022-11-09T22:33:08.673Z,10.1
2022-11-09T22:35:12.207Z,10.1
2022-11-09T22:41:22.954Z,10
2022-11-09T22:43:29.612Z,10.3
2022-11-09T22:45:33.232Z,10.3
2022-11-09T22:47:36.801Z,10.3
2022-11-09T22:49:40.338Z,10.1
2022-11-09T22:51:43.918Z,10.1
2022-11-09T22:53:47.489Z,10.1
2022-11-09T22:55:51.336Z,10.2
2022-11-09T22:57:57.766Z,10.1
2022-11-09T23:00:01.335Z,10
2022-11-09T23:06:38.618Z,10.3
2022-11-09T23:08:42.150Z,10.2
2022-11-09T23:10:48.757Z,10
2022-11-09T23:12:52.385Z,10
2022-11-09T23:16:59.493Z,10
2022-11-09T23:19:03.059Z,10.1
2022-11-09T23:21:06.672Z,10.1
2022-11-09T23:23:10.248Z,10
2022-11-09T23:27:20.442Z,10.1
2022-11-09T23:33:31.162Z,10.1
2022-11-09T23:43:52.118Z,10
2022-11-09T23:45:55.711Z,10.1
2022-11-09T23:47:59.306Z,9.8
2022-11-09T23:50:02.900Z,9.8
2022-11-09T23:52:06.451Z,10.1
2022-11-09T23:54:13.119Z,9.9
2022-11-09T23:56:16.678Z,10
2022-11-09T23:58:20.277Z,9.8
2022-11-09T23:59:23.576Z,10.1
